TRA5062 EHAM-LEGE
Flight info
| Callsign | TRA5062 |
|---|---|
| Flight time | 1h 40m |
| Altitude | 23000 |
| Route | WOODY N872 CIV/N0449F370 DCT KOVIN DCT DUCRA DCT RESMI DCT DEKOD DCT DISAK DCT DIRMO DCT VALKU DCT ATSUP DCT MINSO DCT DEGOL DCT PPG A27 KANIG |
| Aircraft | B738/M-SDE2E3FGHIRWXY/LB1 |
Departure
| Time | 2026-05-07 13:50 |
|---|---|
| Airport | Amsterdam Airport Schiphol (EHAM) |
Arrival
| Time | 2026-05-07 15:30 |
|---|---|
| Airport | Girona-Costa Brava Airport (LEGE) |
| Time | Latitude | Longitude | Altitude | Speed | Heading |
|---|---|---|---|---|---|
| 2026-05-07 13:27 | 52.30790 | 4.77293 | -2 ft | 0 kts | 183° |
| 2026-05-07 13:39 | 52.30791 | 4.77293 | -2 ft | 1 kts | 183° |
| 2026-05-07 13:39 | 52.30814 | 4.77291 | -2 ft | 4 kts | 165° |
| 2026-05-07 13:40 | 52.30836 | 4.77272 | -2 ft | 4 kts | 122° |
| 2026-05-07 13:40 | 52.30841 | 4.77250 | -2 ft | 1 kts | 92° |
| 2026-05-07 13:44 | 52.30841 | 4.77257 | -2 ft | 2 kts | 92° |
| 2026-05-07 13:44 | 52.30840 | 4.77311 | -2 ft | 8 kts | 92° |
| 2026-05-07 13:44 | 52.30836 | 4.77432 | -2 ft | 13 kts | 93° |
| 2026-05-07 13:44 | 52.30853 | 4.77596 | -2 ft | 17 kts | 32° |
| 2026-05-07 13:45 | 52.30982 | 4.77618 | -2 ft | 21 kts | 3° |
| 2026-05-07 13:45 | 52.31136 | 4.77631 | -2 ft | 24 kts | 3° |
| 2026-05-07 13:45 | 52.31309 | 4.77648 | -2 ft | 26 kts | 3° |
| 2026-05-07 13:45 | 52.31482 | 4.77603 | -2 ft | 25 kts | 321° |
| 2026-05-07 13:46 | 52.31576 | 4.77379 | -2 ft | 24 kts | 276° |
| 2026-05-07 13:46 | 52.31569 | 4.77101 | -2 ft | 25 kts | 266° |
| 2026-05-07 13:46 | 52.31558 | 4.76804 | -2 ft | 27 kts | 266° |
| 2026-05-07 13:46 | 52.31548 | 4.76500 | -2 ft | 26 kts | 266° |
| 2026-05-07 13:47 | 52.31538 | 4.76219 | -2 ft | 24 kts | 267° |
| 2026-05-07 13:47 | 52.31529 | 4.75955 | -2 ft | 23 kts | 266° |
| 2026-05-07 13:47 | 52.31520 | 4.75702 | -2 ft | 22 kts | 266° |
| 2026-05-07 13:47 | 52.31512 | 4.75455 | -2 ft | 21 kts | 266° |
| 2026-05-07 13:48 | 52.31503 | 4.75213 | -2 ft | 21 kts | 266° |
| 2026-05-07 13:48 | 52.31496 | 4.74983 | -2 ft | 20 kts | 267° |
| 2026-05-07 13:48 | 52.31488 | 4.74769 | -2 ft | 17 kts | 267° |
| 2026-05-07 13:48 | 52.31562 | 4.74661 | -2 ft | 16 kts | 356° |
| 2026-05-07 13:49 | 52.31661 | 4.74712 | -1 ft | 16 kts | 66° |
| 2026-05-07 13:49 | 52.31678 | 4.75084 | -4 ft | 66 kts | 87° |
| 2026-05-07 13:49 | 52.31717 | 4.76219 | -1 ft | 133 kts | 87° |
| 2026-05-07 13:49 | 52.31785 | 4.77996 | 252 ft | 167 kts | 85° |
| 2026-05-07 13:50 | 52.31860 | 4.79917 | 1099 ft | 173 kts | 86° |
| 2026-05-07 13:50 | 52.31488 | 4.81828 | 1909 ft | 190 kts | 126° |
| 2026-05-07 13:50 | 52.30284 | 4.83021 | 2324 ft | 218 kts | 164° |
| 2026-05-07 13:50 | 52.28771 | 4.83545 | 2859 ft | 228 kts | 167° |
| 2026-05-07 13:51 | 52.27217 | 4.84164 | 3670 ft | 230 kts | 165° |
| 2026-05-07 13:51 | 52.25594 | 4.84786 | 4176 ft | 248 kts | 172° |
| 2026-05-07 13:51 | 52.23817 | 4.84896 | 4801 ft | 263 kts | 181° |
| 2026-05-07 13:51 | 52.21977 | 4.84793 | 5647 ft | 267 kts | 181° |
| 2026-05-07 13:52 | 52.20114 | 4.84717 | 6554 ft | 269 kts | 181° |
| 2026-05-07 13:52 | 52.18239 | 4.84658 | 7432 ft | 270 kts | 181° |
| 2026-05-07 13:52 | 52.16346 | 4.84607 | 8247 ft | 274 kts | 181° |
| 2026-05-07 13:53 | 52.15924 | 4.84596 | 8420 ft | 275 kts | 181° |
| 2026-05-07 13:53 | 52.14377 | 4.84560 | 9100 ft | 278 kts | 181° |
| 2026-05-07 13:53 | 52.12423 | 4.84516 | 9948 ft | 281 kts | 181° |
| 2026-05-07 13:53 | 52.10455 | 4.84474 | 10536 ft | 292 kts | 181° |
| 2026-05-07 13:54 | 52.08327 | 4.84427 | 10728 ft | 317 kts | 181° |
| 2026-05-07 13:54 | 52.06064 | 4.84380 | 11016 ft | 336 kts | 181° |
| 2026-05-07 13:54 | 52.03684 | 4.84331 | 11629 ft | 344 kts | 182° |
| 2026-05-07 13:54 | 52.01434 | 4.83820 | 12294 ft | 347 kts | 200° |
| 2026-05-07 13:55 | 51.99318 | 4.82272 | 13069 ft | 349 kts | 207° |
| 2026-05-07 13:55 | 51.97118 | 4.80480 | 13795 ft | 355 kts | 207° |
| 2026-05-07 13:55 | 51.94906 | 4.78701 | 14498 ft | 359 kts | 207° |
| 2026-05-07 13:55 | 51.92697 | 4.76954 | 15271 ft | 362 kts | 206° |
| 2026-05-07 13:56 | 51.90431 | 4.75177 | 16008 ft | 366 kts | 206° |
| 2026-05-07 13:56 | 51.88111 | 4.73363 | 16768 ft | 369 kts | 206° |
| 2026-05-07 13:56 | 51.85803 | 4.71562 | 17475 ft | 374 kts | 206° |
| 2026-05-07 13:56 | 51.83437 | 4.69717 | 18189 ft | 378 kts | 206° |
| 2026-05-07 13:57 | 51.81072 | 4.67875 | 18835 ft | 382 kts | 206° |
| 2026-05-07 13:57 | 51.78658 | 4.65995 | 19501 ft | 384 kts | 206° |
| 2026-05-07 13:57 | 51.76258 | 4.64128 | 20163 ft | 387 kts | 206° |
| 2026-05-07 13:57 | 51.73838 | 4.62247 | 20797 ft | 390 kts | 206° |
| 2026-05-07 13:58 | 51.71362 | 4.60325 | 21416 ft | 393 kts | 206° |
| 2026-05-07 13:58 | 51.68906 | 4.58421 | 22019 ft | 396 kts | 206° |
| 2026-05-07 13:58 | 51.66412 | 4.56490 | 22619 ft | 399 kts | 206° |
| 2026-05-07 13:58 | 51.63894 | 4.54542 | 23212 ft | 402 kts | 206° |
| 2026-05-07 13:59 | 51.61344 | 4.52569 | 23769 ft | 406 kts | 206° |
| 2026-05-07 13:59 | 51.58806 | 4.50607 | 24255 ft | 408 kts | 206° |
| 2026-05-07 13:59 | 51.56260 | 4.48642 | 24742 ft | 410 kts | 206° |
| 2026-05-07 13:59 | 51.53670 | 4.46645 | 25221 ft | 413 kts | 206° |
| 2026-05-07 14:00 | 51.51057 | 4.44631 | 25691 ft | 415 kts | 206° |
| 2026-05-07 14:00 | 51.48464 | 4.42637 | 26138 ft | 418 kts | 206° |
| 2026-05-07 14:00 | 51.45818 | 4.40603 | 26579 ft | 420 kts | 206° |
| 2026-05-07 14:00 | 51.43189 | 4.38585 | 27006 ft | 423 kts | 206° |
| 2026-05-07 14:01 | 51.40519 | 4.36540 | 27445 ft | 425 kts | 206° |
| 2026-05-07 14:01 | 51.37850 | 4.34526 | 27865 ft | 428 kts | 206° |
| 2026-05-07 14:01 | 51.35121 | 4.32494 | 28276 ft | 430 kts | 206° |
| 2026-05-07 14:01 | 51.32419 | 4.30485 | 28668 ft | 432 kts | 206° |
| 2026-05-07 14:02 | 51.29699 | 4.28448 | 29055 ft | 435 kts | 206° |
| 2026-05-07 14:02 | 51.26955 | 4.26360 | 29439 ft | 437 kts | 207° |
| 2026-05-07 14:02 | 51.24191 | 4.24248 | 29828 ft | 439 kts | 207° |
| 2026-05-07 14:02 | 51.21436 | 4.22145 | 30155 ft | 441 kts | 207° |
| 2026-05-07 14:03 | 51.18683 | 4.20054 | 30481 ft | 442 kts | 207° |
| 2026-05-07 14:03 | 51.15879 | 4.17989 | 30887 ft | 442 kts | 204° |
| 2026-05-07 14:03 | 51.12987 | 4.16282 | 31326 ft | 441 kts | 200° |
| 2026-05-07 14:03 | 51.10100 | 4.14735 | 31736 ft | 440 kts | 200° |
| 2026-05-07 14:04 | 51.07205 | 4.13221 | 32087 ft | 440 kts | 200° |
| 2026-05-07 14:04 | 51.04274 | 4.11676 | 32454 ft | 440 kts | 200° |
| 2026-05-07 14:04 | 51.01420 | 4.10149 | 32848 ft | 438 kts | 200° |
| 2026-05-07 14:04 | 50.98506 | 4.08571 | 33258 ft | 437 kts | 200° |
| 2026-05-07 14:05 | 50.95639 | 4.07009 | 33635 ft | 437 kts | 200° |
| 2026-05-07 14:05 | 50.92786 | 4.05454 | 33991 ft | 436 kts | 200° |
| 2026-05-07 14:05 | 50.89894 | 4.03882 | 34306 ft | 436 kts | 200° |
| 2026-05-07 14:05 | 50.87049 | 4.02309 | 34594 ft | 435 kts | 202° |
| 2026-05-07 14:06 | 50.84218 | 4.00571 | 34846 ft | 435 kts | 204° |
| 2026-05-07 14:06 | 50.81422 | 3.98755 | 35112 ft | 435 kts | 204° |
| 2026-05-07 14:06 | 50.78639 | 3.96924 | 35391 ft | 435 kts | 204° |
| 2026-05-07 14:06 | 50.75861 | 3.95105 | 35672 ft | 435 kts | 204° |
| 2026-05-07 14:07 | 50.73048 | 3.93282 | 35931 ft | 435 kts | 204° |
| 2026-05-07 14:07 | 50.70260 | 3.91491 | 36175 ft | 436 kts | 203° |
| 2026-05-07 14:07 | 50.67435 | 3.89686 | 36443 ft | 436 kts | 203° |
| 2026-05-07 14:07 | 50.64615 | 3.87889 | 36702 ft | 436 kts | 203° |
| 2026-05-07 14:08 | 50.61823 | 3.86112 | 36961 ft | 436 kts | 203° |
| 2026-05-07 14:08 | 50.58994 | 3.84314 | 37068 ft | 438 kts | 203° |
| 2026-05-07 14:08 | 50.56161 | 3.82500 | 37071 ft | 441 kts | 204° |
| 2026-05-07 14:09 | 50.50562 | 3.78709 | 37064 ft | 438 kts | 205° |
| 2026-05-07 14:09 | 50.45017 | 3.74884 | 37064 ft | 433 kts | 205° |
| 2026-05-07 14:10 | 50.39526 | 3.71122 | 37070 ft | 432 kts | 205° |
| 2026-05-07 14:10 | 50.33999 | 3.67365 | 37066 ft | 432 kts | 205° |
| 2026-05-07 14:11 | 50.28497 | 3.63641 | 37067 ft | 432 kts | 205° |
| 2026-05-07 14:11 | 50.22977 | 3.59916 | 37066 ft | 432 kts | 205° |
| 2026-05-07 14:12 | 50.17471 | 3.56208 | 37067 ft | 433 kts | 205° |
| 2026-05-07 14:12 | 50.11938 | 3.52492 | 37067 ft | 434 kts | 205° |
| 2026-05-07 14:13 | 50.06369 | 3.48761 | 37069 ft | 434 kts | 205° |
| 2026-05-07 14:13 | 50.00811 | 3.45047 | 37065 ft | 435 kts | 205° |
| 2026-05-07 14:14 | 49.95256 | 3.41344 | 37062 ft | 436 kts | 205° |
| 2026-05-07 14:14 | 49.89696 | 3.37646 | 37072 ft | 436 kts | 205° |
| 2026-05-07 14:15 | 49.84129 | 3.33954 | 37060 ft | 435 kts | 205° |
| 2026-05-07 14:15 | 49.78577 | 3.30281 | 37064 ft | 434 kts | 205° |
| 2026-05-07 14:16 | 49.73010 | 3.26607 | 37054 ft | 433 kts | 205° |
| 2026-05-07 14:16 | 49.67489 | 3.22973 | 37064 ft | 432 kts | 205° |
| 2026-05-07 14:17 | 49.61962 | 3.19342 | 37063 ft | 431 kts | 205° |
| 2026-05-07 14:17 | 49.56470 | 3.15743 | 37061 ft | 431 kts | 205° |
| 2026-05-07 14:18 | 49.50953 | 3.12137 | 37070 ft | 432 kts | 205° |
| 2026-05-07 14:18 | 49.45660 | 3.07793 | 37069 ft | 430 kts | 214° |
| 2026-05-07 14:19 | 49.40698 | 3.02679 | 37068 ft | 431 kts | 215° |
| 2026-05-07 14:19 | 49.35715 | 2.97549 | 37062 ft | 432 kts | 215° |
| 2026-05-07 14:20 | 49.30715 | 2.92469 | 37053 ft | 432 kts | 214° |
| 2026-05-07 14:20 | 49.25710 | 2.87419 | 37046 ft | 433 kts | 214° |
| 2026-05-07 14:21 | 49.21047 | 2.82729 | 37048 ft | 433 kts | 214° |
| 2026-05-07 14:21 | 49.16017 | 2.77681 | 37054 ft | 434 kts | 214° |
| 2026-05-07 14:22 | 49.10976 | 2.72633 | 37046 ft | 434 kts | 214° |
| 2026-05-07 14:22 | 49.05908 | 2.67570 | 37046 ft | 434 kts | 214° |
| 2026-05-07 14:23 | 49.01256 | 2.62932 | 37047 ft | 434 kts | 214° |
| 2026-05-07 14:23 | 48.96217 | 2.57922 | 37045 ft | 433 kts | 214° |
| 2026-05-07 14:24 | 48.91177 | 2.52923 | 37048 ft | 432 kts | 214° |
| 2026-05-07 14:24 | 48.86148 | 2.47942 | 37048 ft | 432 kts | 214° |
| 2026-05-07 14:25 | 48.81112 | 2.42966 | 37046 ft | 431 kts | 214° |
| 2026-05-07 14:25 | 48.76093 | 2.38018 | 37049 ft | 431 kts | 214° |
| 2026-05-07 14:26 | 48.71048 | 2.33190 | 37038 ft | 433 kts | 207° |
| 2026-05-07 14:26 | 48.68184 | 2.31703 | 37057 ft | 436 kts | 193° |
| 2026-05-07 14:26 | 48.65154 | 2.31234 | 37052 ft | 439 kts | 181° |
| 2026-05-07 14:27 | 48.59065 | 2.32300 | 37047 ft | 442 kts | 174° |
| 2026-05-07 14:27 | 48.52989 | 2.33625 | 37038 ft | 443 kts | 174° |
| 2026-05-07 14:28 | 48.46888 | 2.34905 | 37034 ft | 443 kts | 175° |
| 2026-05-07 14:28 | 48.40773 | 2.36137 | 37032 ft | 444 kts | 175° |
| 2026-05-07 14:29 | 48.34647 | 2.37352 | 37030 ft | 444 kts | 175° |
| 2026-05-07 14:29 | 48.28541 | 2.38557 | 37033 ft | 443 kts | 175° |
| 2026-05-07 14:30 | 48.22439 | 2.39759 | 37035 ft | 443 kts | 175° |
| 2026-05-07 14:30 | 48.16302 | 2.40967 | 37035 ft | 442 kts | 175° |
| 2026-05-07 14:31 | 48.10207 | 2.42163 | 37041 ft | 442 kts | 175° |
| 2026-05-07 14:31 | 48.04122 | 2.43355 | 37035 ft | 442 kts | 175° |
| 2026-05-07 14:32 | 47.98041 | 2.44543 | 37039 ft | 441 kts | 175° |
| 2026-05-07 14:32 | 47.91938 | 2.45732 | 37040 ft | 441 kts | 175° |
| 2026-05-07 14:33 | 47.85870 | 2.46912 | 37039 ft | 441 kts | 175° |
| 2026-05-07 14:33 | 47.79775 | 2.48094 | 37040 ft | 441 kts | 175° |
| 2026-05-07 14:34 | 47.73723 | 2.49265 | 37032 ft | 440 kts | 175° |
| 2026-05-07 14:34 | 47.67652 | 2.50437 | 37030 ft | 440 kts | 175° |
| 2026-05-07 14:35 | 47.61571 | 2.51609 | 37017 ft | 441 kts | 175° |
| 2026-05-07 14:35 | 47.55480 | 2.52779 | 37024 ft | 441 kts | 175° |
| 2026-05-07 14:36 | 47.49403 | 2.53944 | 37013 ft | 441 kts | 175° |
| 2026-05-07 14:36 | 47.43327 | 2.55106 | 37022 ft | 441 kts | 175° |
| 2026-05-07 14:37 | 47.37226 | 2.56270 | 37016 ft | 441 kts | 175° |
| 2026-05-07 14:37 | 47.28108 | 2.58005 | 37017 ft | 441 kts | 176° |
| 2026-05-07 14:38 | 47.22023 | 2.59160 | 37016 ft | 441 kts | 176° |
| 2026-05-07 14:38 | 47.15969 | 2.60306 | 37022 ft | 441 kts | 176° |
| 2026-05-07 14:39 | 47.09886 | 2.61455 | 37019 ft | 440 kts | 176° |
| 2026-05-07 14:39 | 47.03834 | 2.62595 | 37021 ft | 440 kts | 176° |
| 2026-05-07 14:40 | 46.97733 | 2.63742 | 37020 ft | 440 kts | 176° |
| 2026-05-07 14:40 | 46.91702 | 2.64873 | 37017 ft | 439 kts | 176° |
| 2026-05-07 14:41 | 46.85648 | 2.66006 | 37017 ft | 439 kts | 176° |
| 2026-05-07 14:41 | 46.79578 | 2.67139 | 37018 ft | 439 kts | 176° |
| 2026-05-07 14:42 | 46.73531 | 2.68265 | 37011 ft | 439 kts | 176° |
| 2026-05-07 14:42 | 46.67476 | 2.69391 | 37016 ft | 439 kts | 176° |
| 2026-05-07 14:43 | 46.61432 | 2.70512 | 37011 ft | 439 kts | 176° |
| 2026-05-07 14:43 | 46.56383 | 2.71446 | 37011 ft | 438 kts | 176° |
| 2026-05-07 14:44 | 46.49339 | 2.72747 | 37010 ft | 438 kts | 176° |
| 2026-05-07 14:44 | 46.44289 | 2.73677 | 37009 ft | 438 kts | 176° |
| 2026-05-07 14:45 | 46.38235 | 2.74790 | 37009 ft | 438 kts | 176° |
| 2026-05-07 14:45 | 46.32181 | 2.75901 | 37012 ft | 437 kts | 176° |
| 2026-05-07 14:46 | 46.26167 | 2.77001 | 37009 ft | 437 kts | 176° |
| 2026-05-07 14:46 | 46.20101 | 2.78109 | 37016 ft | 437 kts | 176° |
| 2026-05-07 14:47 | 46.14086 | 2.79205 | 37004 ft | 437 kts | 176° |
| 2026-05-07 14:47 | 46.08078 | 2.80299 | 37008 ft | 436 kts | 176° |
| 2026-05-07 14:48 | 46.02045 | 2.81393 | 37012 ft | 436 kts | 176° |
| 2026-05-07 14:48 | 45.96132 | 2.83584 | 37016 ft | 441 kts | 163° |
| 2026-05-07 14:49 | 45.90412 | 2.86728 | 36997 ft | 442 kts | 163° |
| 2026-05-07 14:49 | 45.84685 | 2.89819 | 36997 ft | 441 kts | 163° |
| 2026-05-07 14:50 | 45.78913 | 2.92869 | 36994 ft | 441 kts | 163° |
| 2026-05-07 14:50 | 45.73058 | 2.95152 | 36998 ft | 434 kts | 177° |
| 2026-05-07 14:51 | 45.67085 | 2.95240 | 36994 ft | 429 kts | 185° |
| 2026-05-07 14:51 | 45.61127 | 2.94996 | 36992 ft | 429 kts | 185° |
| 2026-05-07 14:52 | 45.55142 | 2.94787 | 36999 ft | 429 kts | 185° |
| 2026-05-07 14:52 | 45.49203 | 2.94615 | 37000 ft | 429 kts | 184° |
| 2026-05-07 14:53 | 45.43218 | 2.94454 | 37002 ft | 429 kts | 184° |
| 2026-05-07 14:53 | 45.37226 | 2.94295 | 36990 ft | 430 kts | 184° |
| 2026-05-07 14:54 | 45.31274 | 2.94136 | 36992 ft | 429 kts | 184° |
| 2026-05-07 14:54 | 45.25298 | 2.93976 | 36991 ft | 428 kts | 184° |
| 2026-05-07 14:55 | 45.19359 | 2.93818 | 36990 ft | 428 kts | 184° |
| 2026-05-07 14:55 | 45.13400 | 2.93658 | 36978 ft | 428 kts | 184° |
| 2026-05-07 14:56 | 45.07448 | 2.93500 | 36983 ft | 427 kts | 184° |
| 2026-05-07 14:56 | 45.01544 | 2.93343 | 36982 ft | 426 kts | 184° |
| 2026-05-07 14:57 | 44.95596 | 2.93186 | 36985 ft | 425 kts | 184° |
| 2026-05-07 14:57 | 44.89687 | 2.93029 | 36987 ft | 425 kts | 184° |
| 2026-05-07 14:58 | 44.83788 | 2.92866 | 36974 ft | 425 kts | 185° |
| 2026-05-07 14:58 | 44.77910 | 2.92476 | 36984 ft | 423 kts | 186° |
| 2026-05-07 14:59 | 44.72012 | 2.91998 | 36970 ft | 423 kts | 186° |
| 2026-05-07 14:59 | 44.66153 | 2.91542 | 36980 ft | 423 kts | 186° |
| 2026-05-07 15:00 | 44.60253 | 2.91103 | 36973 ft | 423 kts | 186° |
| 2026-05-07 15:00 | 44.54382 | 2.90676 | 36981 ft | 423 kts | 186° |
| 2026-05-07 15:01 | 44.48527 | 2.90251 | 36968 ft | 423 kts | 186° |
| 2026-05-07 15:01 | 44.42635 | 2.89825 | 36973 ft | 422 kts | 186° |
| 2026-05-07 15:02 | 44.36778 | 2.89401 | 36970 ft | 422 kts | 186° |
| 2026-05-07 15:02 | 44.30940 | 2.88979 | 36973 ft | 421 kts | 186° |
| 2026-05-07 15:03 | 44.25072 | 2.88556 | 36973 ft | 421 kts | 186° |
| 2026-05-07 15:03 | 44.19243 | 2.88137 | 36969 ft | 421 kts | 186° |
| 2026-05-07 15:04 | 44.13387 | 2.87716 | 36974 ft | 420 kts | 186° |
| 2026-05-07 15:04 | 44.07569 | 2.87300 | 36965 ft | 420 kts | 186° |
| 2026-05-07 15:05 | 44.01716 | 2.86881 | 36960 ft | 420 kts | 186° |
| 2026-05-07 15:05 | 43.95885 | 2.86465 | 36963 ft | 420 kts | 186° |
| 2026-05-07 15:06 | 43.92928 | 2.86253 | 36490 ft | 425 kts | 186° |
| 2026-05-07 15:06 | 43.90011 | 2.86045 | 35959 ft | 423 kts | 186° |
| 2026-05-07 15:06 | 43.87067 | 2.85837 | 35356 ft | 422 kts | 186° |
| 2026-05-07 15:06 | 43.84120 | 2.85628 | 34734 ft | 422 kts | 186° |
| 2026-05-07 15:07 | 43.81230 | 2.85423 | 34293 ft | 418 kts | 186° |
| 2026-05-07 15:07 | 43.78318 | 2.85220 | 33801 ft | 414 kts | 186° |
| 2026-05-07 15:07 | 43.75474 | 2.85148 | 33286 ft | 411 kts | 184° |
| 2026-05-07 15:07 | 43.72609 | 2.85178 | 32806 ft | 407 kts | 183° |
| 2026-05-07 15:08 | 43.69783 | 2.85245 | 32362 ft | 403 kts | 183° |
| 2026-05-07 15:08 | 43.67021 | 2.85315 | 31901 ft | 399 kts | 183° |
| 2026-05-07 15:08 | 43.64243 | 2.85379 | 31455 ft | 395 kts | 183° |
| 2026-05-07 15:08 | 43.61500 | 2.85435 | 31021 ft | 392 kts | 183° |
| 2026-05-07 15:09 | 43.58768 | 2.85484 | 30577 ft | 389 kts | 183° |
| 2026-05-07 15:09 | 43.56100 | 2.85527 | 30154 ft | 386 kts | 183° |
| 2026-05-07 15:09 | 43.53419 | 2.85568 | 29669 ft | 383 kts | 183° |
| 2026-05-07 15:09 | 43.50781 | 2.85607 | 29192 ft | 379 kts | 183° |
| 2026-05-07 15:10 | 43.48151 | 2.85646 | 28751 ft | 375 kts | 183° |
| 2026-05-07 15:10 | 43.45536 | 2.85684 | 28299 ft | 371 kts | 183° |
| 2026-05-07 15:10 | 43.42983 | 2.85721 | 27860 ft | 368 kts | 183° |
| 2026-05-07 15:10 | 43.40429 | 2.85759 | 27414 ft | 365 kts | 183° |
| 2026-05-07 15:11 | 43.37894 | 2.85795 | 26977 ft | 362 kts | 183° |
| 2026-05-07 15:11 | 43.35403 | 2.85831 | 26550 ft | 360 kts | 183° |
| 2026-05-07 15:11 | 43.32896 | 2.85867 | 26117 ft | 358 kts | 182° |
| 2026-05-07 15:11 | 43.30398 | 2.85902 | 25701 ft | 356 kts | 182° |
| 2026-05-07 15:12 | 43.27949 | 2.85938 | 25280 ft | 354 kts | 182° |
| 2026-05-07 15:12 | 43.25485 | 2.85973 | 24861 ft | 353 kts | 182° |
| 2026-05-07 15:12 | 43.23028 | 2.86009 | 24446 ft | 351 kts | 182° |
| 2026-05-07 15:12 | 43.20613 | 2.86044 | 24037 ft | 350 kts | 182° |
| 2026-05-07 15:13 | 43.18175 | 2.86078 | 23603 ft | 350 kts | 182° |
| 2026-05-07 15:13 | 43.15737 | 2.86114 | 23135 ft | 349 kts | 182° |
| 2026-05-07 15:13 | 43.13332 | 2.86149 | 22678 ft | 347 kts | 182° |
| 2026-05-07 15:13 | 43.10921 | 2.86184 | 22240 ft | 345 kts | 181° |
| 2026-05-07 15:14 | 43.08521 | 2.86219 | 21838 ft | 342 kts | 181° |
| 2026-05-07 15:14 | 43.06145 | 2.86254 | 21421 ft | 340 kts | 181° |
| 2026-05-07 15:14 | 43.03806 | 2.86287 | 21021 ft | 338 kts | 181° |
| 2026-05-07 15:14 | 43.01449 | 2.86321 | 20626 ft | 337 kts | 181° |
| 2026-05-07 15:15 | 42.99134 | 2.86354 | 20214 ft | 335 kts | 181° |
| 2026-05-07 15:15 | 42.96796 | 2.86388 | 19824 ft | 334 kts | 181° |
| 2026-05-07 15:15 | 42.94467 | 2.86421 | 19436 ft | 333 kts | 181° |
| 2026-05-07 15:15 | 42.92151 | 2.86454 | 19041 ft | 331 kts | 181° |
| 2026-05-07 15:16 | 42.89869 | 2.86487 | 18665 ft | 331 kts | 181° |
| 2026-05-07 15:16 | 42.87563 | 2.86520 | 18264 ft | 330 kts | 181° |
| 2026-05-07 15:16 | 42.85282 | 2.86553 | 17816 ft | 329 kts | 181° |
| 2026-05-07 15:16 | 42.82991 | 2.86587 | 17404 ft | 327 kts | 181° |
| 2026-05-07 15:17 | 42.80711 | 2.86619 | 16999 ft | 325 kts | 181° |
| 2026-05-07 15:17 | 42.78477 | 2.86650 | 16609 ft | 323 kts | 181° |
| 2026-05-07 15:17 | 42.76230 | 2.86688 | 16224 ft | 321 kts | 179° |
| 2026-05-07 15:17 | 42.74009 | 2.87079 | 15843 ft | 321 kts | 167° |
| 2026-05-07 15:18 | 42.71869 | 2.87947 | 15474 ft | 319 kts | 164° |
| 2026-05-07 15:18 | 42.69781 | 2.88868 | 15107 ft | 318 kts | 163° |
| 2026-05-07 15:18 | 42.67676 | 2.89805 | 14739 ft | 316 kts | 163° |
| 2026-05-07 15:18 | 42.65607 | 2.90718 | 14365 ft | 315 kts | 163° |
| 2026-05-07 15:19 | 42.63528 | 2.91625 | 14002 ft | 313 kts | 163° |
| 2026-05-07 15:19 | 42.61431 | 2.92534 | 13612 ft | 312 kts | 163° |
| 2026-05-07 15:19 | 42.59361 | 2.93426 | 13206 ft | 311 kts | 163° |
| 2026-05-07 15:19 | 42.57325 | 2.94302 | 12842 ft | 309 kts | 163° |
| 2026-05-07 15:20 | 42.55280 | 2.95181 | 12476 ft | 307 kts | 164° |
| 2026-05-07 15:20 | 42.53261 | 2.96047 | 12142 ft | 304 kts | 164° |
| 2026-05-07 15:20 | 42.51226 | 2.96919 | 11757 ft | 303 kts | 163° |
| 2026-05-07 15:20 | 42.49229 | 2.97759 | 11398 ft | 302 kts | 167° |
| 2026-05-07 15:21 | 42.47160 | 2.97955 | 11027 ft | 299 kts | 189° |
| 2026-05-07 15:21 | 42.45155 | 2.97297 | 10691 ft | 297 kts | 196° |
| 2026-05-07 15:21 | 42.43175 | 2.96514 | 10390 ft | 294 kts | 197° |
| 2026-05-07 15:21 | 42.41228 | 2.95731 | 10264 ft | 287 kts | 197° |
| 2026-05-07 15:22 | 42.39336 | 2.94975 | 10136 ft | 285 kts | 197° |
| 2026-05-07 15:22 | 42.37405 | 2.94213 | 9974 ft | 288 kts | 196° |
| 2026-05-07 15:22 | 42.35457 | 2.93451 | 9646 ft | 294 kts | 196° |
| 2026-05-07 15:22 | 42.33510 | 2.92693 | 9268 ft | 294 kts | 196° |
| 2026-05-07 15:23 | 42.31530 | 2.91927 | 8844 ft | 292 kts | 196° |
| 2026-05-07 15:23 | 42.29582 | 2.91174 | 8431 ft | 289 kts | 196° |
| 2026-05-07 15:23 | 42.27663 | 2.90434 | 8028 ft | 286 kts | 196° |
| 2026-05-07 15:23 | 42.25766 | 2.89703 | 7619 ft | 284 kts | 196° |
| 2026-05-07 15:24 | 42.23883 | 2.88978 | 7219 ft | 279 kts | 196° |
| 2026-05-07 15:24 | 42.22038 | 2.88247 | 6733 ft | 278 kts | 197° |
| 2026-05-07 15:24 | 42.20188 | 2.87474 | 6276 ft | 276 kts | 197° |
| 2026-05-07 15:24 | 42.18367 | 2.86751 | 5889 ft | 271 kts | 196° |
| 2026-05-07 15:25 | 42.16587 | 2.86071 | 5553 ft | 262 kts | 196° |
| 2026-05-07 15:25 | 42.14866 | 2.85421 | 5193 ft | 250 kts | 195° |
| 2026-05-07 15:25 | 42.13221 | 2.84802 | 4862 ft | 239 kts | 196° |
| 2026-05-07 15:25 | 42.11654 | 2.84209 | 4552 ft | 232 kts | 195° |
| 2026-05-07 15:26 | 42.10116 | 2.83627 | 4265 ft | 225 kts | 195° |
| 2026-05-07 15:26 | 42.08624 | 2.83062 | 3953 ft | 222 kts | 195° |
| 2026-05-07 15:26 | 42.07145 | 2.82503 | 3654 ft | 218 kts | 194° |
| 2026-05-07 15:26 | 42.05704 | 2.81960 | 3396 ft | 216 kts | 194° |
| 2026-05-07 15:27 | 42.04244 | 2.81408 | 3093 ft | 216 kts | 194° |
| 2026-05-07 15:27 | 42.02830 | 2.80872 | 2806 ft | 206 kts | 194° |
| 2026-05-07 15:27 | 42.01485 | 2.80363 | 2526 ft | 196 kts | 194° |
| 2026-05-07 15:27 | 42.00220 | 2.79883 | 2287 ft | 183 kts | 194° |
| 2026-05-07 15:28 | 41.99028 | 2.79431 | 2053 ft | 172 kts | 194° |
| 2026-05-07 15:28 | 41.97918 | 2.79004 | 1862 ft | 156 kts | 193° |
| 2026-05-07 15:28 | 41.96932 | 2.78641 | 1666 ft | 139 kts | 193° |
| 2026-05-07 15:28 | 41.96023 | 2.78303 | 1422 ft | 133 kts | 195° |
| 2026-05-07 15:29 | 41.95136 | 2.77972 | 1258 ft | 133 kts | 196° |
| 2026-05-07 15:29 | 41.94251 | 2.77627 | 1077 ft | 133 kts | 196° |
| 2026-05-07 15:29 | 41.93360 | 2.77288 | 936 ft | 134 kts | 195° |
| 2026-05-07 15:29 | 41.92456 | 2.76948 | 723 ft | 133 kts | 195° |
| 2026-05-07 15:30 | 41.91558 | 2.76606 | 525 ft | 133 kts | 195° |
| 2026-05-07 15:30 | 41.90720 | 2.76291 | 452 ft | 105 kts | 195° |
| 2026-05-07 15:30 | 41.90234 | 2.76107 | 439 ft | 44 kts | 196° |
| 2026-05-07 15:30 | 41.90081 | 2.76136 | 430 ft | 21 kts | 110° |
| 2026-05-07 15:31 | 41.90043 | 2.76319 | 422 ft | 20 kts | 108° |
| 2026-05-07 15:31 | 41.89973 | 2.76352 | 426 ft | 7 kts | 196° |
| 2026-05-07 15:31 | 41.89959 | 2.76347 | 427 ft | 1 kts | 196° |